Rechercher aéroport 
image banner adimage banner adimage banner ad
image banner ad

8CL6 - Moller

Situé à Maxwell, United States

ICAO - 8CL6, IATA -

Données fournies par Airmate  

Information générale

Coordonnées: N39°17'19" W122°11'21"
Élévation : 85 feet MSL.
Variation magnétique : 17° East
Voir autres Aéroports à California

Données opérationnelles

Special qualification required
Heure actuelle UTC:
Heure actuelle locale:
Météo à : KOVE - Oroville Muni ( 54 km )
METAR: KOVE 262253Z AUTO 17010KT 10SM CLR 31/09 A2982 RMK AO2 SLP099 T03060094
Voir NOTAMs / SUP AIP / TFR affectant cet aéroport [VIEW]
Fréquences de communication: [VIEW]

Pistes:

Identifiant RWYQFULongueur (ft)Largeur (ft)SurfaceLDA (ft)
N170075OTHER
S170075OTHER

Coordonnées de l'aéroport

Adresse: Maxwell United States

Vue satellite de 8CL6